Time;durP1;ratioP1;P1;durP2;ratioP2;P2;SDS_P1;SDS_P2;PMS_P1;PMS_P2;Temp;Humidity;BMP_temperature;BMP_pressure;BME280_temperature;BME280_humidity;BME280_pressure;Samples;Min_cycle;Max_cycle;Signal;HPM_P1;HPM_P2
2021/09/15 00:01:05;;;;;;;22.75;13.52;;;17.40;99.90;;;;;;5116488;28;20449;-89
2021/09/15 00:03:35;;;;;;;25.45;14.52;;;17.20;99.90;;;;;;5115894;28;20028;-89
2021/09/15 00:06:01;;;;;;;22.70;13.23;;;17.20;99.90;;;;;;5097792;28;20069;-89
2021/09/15 00:08:27;;;;;;;24.63;13.75;;;17.40;99.90;;;;;;5097570;28;20154;-89
2021/09/15 00:10:53;;;;;;;25.48;15.10;;;17.40;99.90;;;;;;5097955;28;20024;-89
2021/09/15 00:13:18;;;;;;;25.20;15.10;;;17.40;99.90;;;;;;5097367;28;20126;-89
2021/09/15 00:15:44;;;;;;;25.23;14.48;;;17.20;99.90;;;;;;5098062;28;20024;-88
2021/09/15 00:18:10;;;;;;;32.03;15.02;;;17.10;99.90;;;;;;5116215;28;20050;-88
2021/09/15 00:20:35;;;;;;;27.42;14.95;;;15.60;99.90;;;;;;5097835;28;20026;-88
2021/09/15 00:23:01;;;;;;;25.27;14.43;;;17.30;99.90;;;;;;5097963;28;20027;-88
2021/09/15 00:25:27;;;;;;;28.67;15.02;;;17.30;99.90;;;;;;5116337;28;20047;-89
2021/09/15 00:27:52;;;;;;;27.55;15.02;;;18.10;99.90;;;;;;5097119;28;20086;-89
2021/09/15 00:30:18;;;;;;;25.17;14.82;;;19.30;99.90;;;;;;5098271;28;20023;-90
2021/09/15 00:32:43;;;;;;;28.92;14.85;;;20.50;99.90;;;;;;5115476;28;20027;-89
2021/09/15 00:35:09;;;;;;;27.75;14.85;;;16.90;99.90;;;;;;5097865;28;20030;-90
2021/09/15 00:37:35;;;;;;;28.98;15.88;;;16.90;99.90;;;;;;5097440;28;20168;-89
2021/09/15 00:40:01;;;;;;;28.85;16.45;;;16.90;99.90;;;;;;5097060;28;20111;-89
2021/09/15 00:42:26;;;;;;;34.90;18.65;;;16.70;99.90;;;;;;5097333;28;20031;-90
2021/09/15 00:44:52;;;;;;;37.13;17.48;;;16.80;99.90;;;;;;5097794;28;20019;-90
2021/09/15 00:47:18;;;;;;;33.97;17.73;;;16.80;99.90;;;;;;5097230;28;20111;-90
2021/09/15 00:49:44;;;;;;;32.42;17.67;;;17.50;99.90;;;;;;5097069;28;20096;-90
2021/09/15 00:52:09;;;;;;;35.50;18.05;;;16.90;99.90;;;;;;5097439;28;20024;-90
2021/09/15 00:54:35;;;;;;;33.45;18.45;;;17.70;99.90;;;;;;5116108;28;20015;-90
2021/09/15 00:57:01;;;;;;;32.10;16.25;;;17.10;99.90;;;;;;5097180;28;20015;-90
2021/09/15 00:59:26;;;;;;;28.25;16.08;;;16.80;99.90;;;;;;5097119;28;20019;-89
2021/09/15 01:01:53;;;;;;;32.78;16.50;;;14.60;99.90;;;;;;5097225;28;20453;-89
2021/09/15 01:04:20;;;;;;;27.42;16.20;;;18.90;99.90;;;;;;5115302;28;20028;-88
2021/09/15 01:06:45;;;;;;;31.65;17.27;;;16.90;99.90;;;;;;5098444;28;20050;-88
2021/09/15 01:09:11;;;;;;;33.45;16.42;;;18.90;99.90;;;;;;5096885;28;20031;-89
2021/09/15 01:11:38;;;;;;;27.48;17.38;;;16.80;99.90;;;;;;5115123;28;20020;-88
2021/09/15 01:14:08;;;;;;;33.35;18.13;;;18.40;99.90;;;;;;5096791;28;20024;-88
2021/09/15 01:16:55;;;;;;;29.67;16.10;;;16.70;99.90;;;;;;5096860;28;20515;-88
2021/09/15 01:19:23;;;;;;;32.60;17.63;;;16.70;99.90;;;;;;5096729;28;20055;-89
2021/09/15 01:21:50;;;;;;;32.97;17.05;;;17.60;99.90;;;;;;5097024;28;20020;-88
2021/09/15 01:24:16;;;;;;;27.10;15.75;;;16.70;99.90;;;;;;5096817;28;20020;-89
2021/09/15 01:26:41;;;;;;;29.42;17.15;;;17.90;99.90;;;;;;5096315;28;20034;-89
2021/09/15 01:29:13;;;;;;;30.38;17.35;;;16.70;99.90;;;;;;5113814;28;20468;-89
2021/09/15 01:31:52;;;;;;;28.45;16.05;;;14.60;99.90;;;;;;5113955;28;20421;-89
2021/09/15 01:34:18;;;;;;;32.28;15.68;;;20.00;99.90;;;;;;5096200;28;20050;-88
2021/09/15 01:36:43;;;;;;;32.35;15.07;;;17.60;99.90;;;;;;5097154;28;20015;-89
2021/09/15 01:39:09;;;;;;;28.70;16.17;;;16.70;99.90;;;;;;5096445;28;20536;-89
2021/09/15 01:41:35;;;;;;;28.10;15.70;;;16.60;99.90;;;;;;5096359;28;20118;-88
2021/09/15 01:44:00;;;;;;;28.42;15.18;;;17.30;99.90;;;;;;5096535;28;20028;-89
2021/09/15 01:46:26;;;;;;;23.30;14.40;;;14.10;99.90;;;;;;5096726;28;20110;-88
2021/09/15 01:48:51;;;;;;;23.50;13.82;;;18.10;99.90;;;;;;5096244;28;20027;-89
2021/09/15 01:51:17;;;;;;;27.05;13.65;;;16.60;99.90;;;;;;5096568;28;20020;-89
2021/09/15 01:53:42;;;;;;;26.73;14.82;;;16.60;99.90;;;;;;5096041;28;20023;-88
2021/09/15 01:56:08;;;;;;;29.48;14.27;;;16.60;99.90;;;;;;5096280;28;20061;-88
2021/09/15 01:58:34;;;;;;;23.45;13.25;;;17.40;99.90;;;;;;5096511;28;20024;-88
2021/09/15 02:00:59;;;;;;;28.45;14.38;;;16.60;99.90;;;;;;5096419;28;20020;-88
2021/09/15 02:03:25;;;;;;;26.63;14.23;;;16.70;99.90;;;;;;5096388;28;20038;-89
2021/09/15 02:05:50;;;;;;;25.30;13.25;;;16.60;99.90;;;;;;5095972;28;20027;-89
2021/09/15 02:08:16;;;;;;;27.50;13.60;;;17.50;99.90;;;;;;5096167;28;20020;-89
2021/09/15 02:10:43;;;;;;;27.40;13.60;;;16.50;99.90;;;;;;5095992;28;20118;-88
2021/09/15 02:13:09;;;;;;;24.90;13.27;;;16.70;99.90;;;;;;5114200;28;20054;-89
2021/09/15 02:15:35;;;;;;;22.55;13.20;;;16.40;99.90;;;;;;5096138;28;20430;-89
2021/09/15 02:18:00;;;;;;;23.92;13.77;;;16.40;99.90;;;;;;5095369;28;20480;-89
2021/09/15 02:20:26;;;;;;;23.70;13.50;;;16.20;99.90;;;;;;5096440;28;20031;-89
2021/09/15 02:22:51;;;;;;;23.33;12.18;;;16.30;99.90;;;;;;5095811;28;20031;-89
2021/09/15 02:25:17;;;;;;;24.15;12.77;;;16.80;99.90;;;;;;5096258;28;20031;-90
2021/09/15 02:27:43;;;;;;;23.52;13.35;;;16.80;99.90;;;;;;5114496;28;20046;-88
2021/09/15 02:30:09;;;;;;;23.05;12.57;;;18.00;99.90;;;;;;5096294;28;20062;-89
2021/09/15 02:32:34;;;;;;;20.42;12.93;;;16.20;99.90;;;;;;5095820;28;20027;-88
2021/09/15 02:35:00;;;;;;;21.83;12.80;;;16.20;99.90;;;;;;5095867;28;20016;-88
2021/09/15 02:37:26;;;;;;;21.70;12.50;;;16.30;99.90;;;;;;5096350;28;20457;-88
2021/09/15 02:39:52;;;;;;;23.08;12.45;;;19.50;99.90;;;;;;5097516;28;20024;-90
2021/09/15 02:42:17;;;;;;;20.55;11.60;;;18.70;99.90;;;;;;5099951;28;20376;-90
2021/09/15 02:44:43;;;;;;;20.77;11.32;;;18.70;99.90;;;;;;5100416;28;20016;-90
2021/09/15 02:47:08;;;;;;;23.00;12.38;;;17.60;99.90;;;;;;5099299;28;20020;-89
2021/09/15 02:49:34;;;;;;;22.55;11.70;;;18.40;99.90;;;;;;5099597;28;20020;-89
2021/09/15 02:52:00;;;;;;;24.33;12.77;;;18.80;99.90;;;;;;5099665;28;20468;-89
2021/09/15 02:54:25;;;;;;;21.42;12.07;;;16.20;99.90;;;;;;5099392;28;20034;-89
2021/09/15 02:56:51;;;;;;;20.23;11.40;;;19.50;99.90;;;;;;5100068;28;20524;-89
2021/09/15 02:59:17;;;;;;;23.30;12.02;;;16.30;99.90;;;;;;5098938;28;20118;-89
2021/09/15 03:01:42;;;;;;;22.77;12.65;;;18.20;99.90;;;;;;5099548;28;20035;-89
2021/09/15 03:04:08;;;;;;;16.55;10.77;;;16.10;99.90;;;;;;5098795;28;20472;-89
2021/09/15 03:06:33;;;;;;;21.10;11.57;;;16.00;99.90;;;;;;5118057;28;20028;-89
2021/09/15 03:08:59;;;;;;;18.73;10.68;;;16.10;99.90;;;;;;5099229;28;20439;-89
2021/09/15 03:11:25;;;;;;;32.85;11.75;;;16.20;99.90;;;;;;5100008;28;20027;-89
2021/09/15 03:13:50;;;;;;;28.92;12.15;;;19.30;99.90;;;;;;5099742;28;20024;-90
2021/09/15 03:16:16;;;;;;;29.08;12.77;;;16.90;99.90;;;;;;5099773;28;20019;-89
2021/09/15 03:18:41;;;;;;;24.17;11.52;;;16.00;99.90;;;;;;5099595;28;20034;-89
2021/09/15 03:21:07;;;;;;;18.77;10.43;;;17.80;99.90;;;;;;5098951;28;20034;-88
2021/09/15 03:23:33;;;;;;;18.42;10.43;;;14.80;99.90;;;;;;5098951;28;20020;-88
2021/09/15 03:25:59;;;;;;;20.27;10.23;;;16.00;99.90;;;;;;5098882;28;20027;-88
2021/09/15 03:28:24;;;;;;;22.80;10.70;;;16.10;99.90;;;;;;5099410;28;20392;-88
2021/09/15 03:30:50;;;;;;;20.73;10.23;;;15.80;99.90;;;;;;5099034;28;20458;-88
2021/09/15 03:33:16;;;;;;;19.00;10.23;;;18.40;99.90;;;;;;5098789;28;20030;-88
2021/09/15 03:35:41;;;;;;;19.08;10.40;;;19.00;99.90;;;;;;5099598;28;20023;-89
2021/09/15 03:38:07;;;;;;;20.15;10.90;;;15.90;99.90;;;;;;5098749;28;20023;-89
2021/09/15 03:40:33;;;;;;;19.25;10.80;;;17.60;99.90;;;;;;5116410;28;20020;-90
2021/09/15 03:42:58;;;;;;;19.15;10.27;;;17.40;99.90;;;;;;5116561;28;20100;-90
2021/09/15 03:45:24;;;;;;;22.95;11.20;;;14.40;99.90;;;;;;5099051;28;20027;-88
2021/09/15 03:47:50;;;;;;;21.17;10.70;;;16.00;99.90;;;;;;5117130;28;20476;-89
2021/09/15 03:50:15;;;;;;;20.90;11.18;;;16.10;99.90;;;;;;5098576;28;20024;-88
2021/09/15 03:52:41;;;;;;;19.77;10.75;;;18.20;99.90;;;;;;5097622;28;20110;-88
2021/09/15 03:55:08;;;;;;;21.33;10.15;;;16.10;99.90;;;;;;5098346;28;20030;-88
2021/09/15 03:57:33;;;;;;;19.98;11.10;;;16.20;99.90;;;;;;5098438;28;20011;-88
2021/09/15 03:59:59;;;;;;;19.73;10.52;;;16.40;99.90;;;;;;5098282;28;20384;-88
2021/09/15 04:02:24;;;;;;;19.98;10.82;;;15.90;99.90;;;;;;5098558;28;20026;-89
2021/09/15 04:04:50;;;;;;;17.70;10.00;;;19.00;99.90;;;;;;5098266;28;20020;-89
2021/09/15 04:07:16;;;;;;;19.67;10.52;;;18.30;99.90;;;;;;5098434;28;20460;-89
2021/09/15 04:09:42;;;;;;;21.30;10.32;;;19.20;99.90;;;;;;5116019;28;20119;-89
2021/09/15 04:12:07;;;;;;;20.95;10.10;;;17.50;99.90;;;;;;5098172;28;20055;-89
2021/09/15 04:14:33;;;;;;;18.42;9.82;;;17.60;99.90;;;;;;5097538;28;20077;-90
2021/09/15 04:16:59;;;;;;;15.70;8.82;;;16.40;99.90;;;;;;5116306;28;20034;-89
2021/09/15 04:19:25;;;;;;;17.98;9.60;;;17.20;99.90;;;;;;5098015;28;20119;-89
2021/09/15 04:21:50;;;;;;;18.20;10.27;;;19.40;99.90;;;;;;5116178;28;20058;-90
2021/09/15 04:31:11;;;;;;;22.45;9.88;;;18.80;99.90;;;;;;5097546;28;20019;-90
2021/09/15 04:32:30;;;;;;;25.13;11.23;;;16.90;99.90;;;;;;5116252;28;20062;-89
2021/09/15 04:34:56;;;;;;;20.40;10.48;;;16.60;99.90;;;;;;5097458;28;20011;-90
2021/09/15 04:37:21;;;;;;;23.60;11.00;;;16.70;99.90;;;;;;5116320;28;20027;-88
2021/09/15 04:39:47;;;;;;;19.08;10.18;;;17.50;99.90;;;;;;5115923;28;20040;-88
2021/09/15 04:42:12;;;;;;;21.42;10.02;;;19.50;99.90;;;;;;5097496;28;20024;-88
2021/09/15 04:44:38;;;;;;;17.27;10.23;;;15.20;99.90;;;;;;5097779;28;20015;-88
2021/09/15 04:47:04;;;;;;;26.40;9.73;;;18.70;99.90;;;;;;5115889;28;20027;-88
2021/09/15 04:49:29;;;;;;;24.65;11.07;;;17.20;99.90;;;;;;5097485;28;20027;-89
2021/09/15 04:51:55;;;;;;;24.27;12.13;;;16.80;99.90;;;;;;5097515;28;20054;-89
2021/09/15 04:54:20;;;;;;;26.75;11.32;;;19.30;99.90;;;;;;5097745;28;20023;-90
2021/09/15 04:56:46;;;;;;;24.98;11.00;;;16.80;99.90;;;;;;5098480;28;20387;-88
2021/09/15 04:59:12;;;;;;;20.38;10.15;;;19.50;99.90;;;;;;5097425;28;20028;-89
2021/09/15 05:01:37;;;;;;;21.77;9.10;;;18.90;99.90;;;;;;5098584;28;20177;-88
2021/09/15 05:04:03;;;;;;;23.15;10.38;;;16.90;99.90;;;;;;5098321;28;20016;-88
2021/09/15 05:06:29;;;;;;;22.95;10.00;;;16.90;99.90;;;;;;5115693;28;20452;-88
2021/09/15 05:08:54;;;;;;;21.38;11.40;;;17.50;99.90;;;;;;5097265;28;20032;-88
2021/09/15 05:11:20;;;;;;;26.23;11.88;;;16.70;99.90;;;;;;5097027;28;20024;-88
2021/09/15 05:13:45;;;;;;;20.25;10.73;;;17.80;99.90;;;;;;5096801;28;20122;-88
2021/09/15 05:16:11;;;;;;;21.60;10.43;;;16.90;99.90;;;;;;5096854;28;20076;-88
2021/09/15 05:18:37;;;;;;;22.65;11.10;;;16.90;99.90;;;;;;5096938;28;20088;-88
2021/09/15 05:21:02;;;;;;;27.08;11.05;;;17.80;99.90;;;;;;5096574;28;20020;-88
2021/09/15 05:23:28;;;;;;;20.20;11.02;;;16.90;99.90;;;;;;5096659;28;20039;-88
2021/09/15 05:25:54;;;;;;;22.05;10.75;;;17.10;99.90;;;;;;5096556;28;20503;-89
2021/09/15 05:28:19;;;;;;;20.83;10.38;;;17.30;99.90;;;;;;5096145;28;20084;-89
2021/09/15 05:30:45;;;;;;;22.42;11.82;;;19.50;99.90;;;;;;5114815;28;20038;-89
2021/09/15 05:33:12;;;;;;;21.67;10.60;;;14.20;99.90;;;;;;5096269;28;20023;-90
2021/09/15 05:35:37;;;;;;;23.92;10.98;;;20.00;99.90;;;;;;5096373;28;20032;-90
2021/09/15 05:38:03;;;;;;;22.60;11.70;;;19.90;99.90;;;;;;5114720;28;20492;-90
2021/09/15 05:40:32;;;;;;;19.42;10.00;;;16.90;99.90;;;;;;5096326;28;20038;-90
2021/09/15 05:42:57;;;;;;;25.20;11.85;;;20.50;99.90;;;;;;5096467;28;20101;-88
2021/09/15 05:45:23;;;;;;;23.45;11.00;;;19.10;99.90;;;;;;5112821;28;20020;-89
2021/09/15 05:47:49;;;;;;;25.48;11.75;;;19.20;99.90;;;;;;5096495;28;20012;-90
2021/09/15 05:50:14;;;;;;;21.90;10.73;;;17.80;99.90;;;;;;5113489;28;20081;-89
2021/09/15 05:52:40;;;;;;;21.45;10.00;;;17.20;99.90;;;;;;5090829;28;20020;-89
2021/09/15 05:55:06;;;;;;;21.58;10.85;;;17.20;99.90;;;;;;5093825;28;20064;-90
2021/09/15 05:57:32;;;;;;;22.30;11.15;;;15.60;99.90;;;;;;5096094;28;20036;-90
2021/09/15 05:59:58;;;;;;;24.10;11.48;;;18.20;99.90;;;;;;5095885;28;20038;-90
2021/09/15 06:02:24;;;;;;;26.20;11.77;;;17.20;99.90;;;;;;5096237;28;20110;-90
2021/09/15 06:04:49;;;;;;;18.58;10.68;;;17.40;99.90;;;;;;5095666;28;20087;-90
2021/09/15 06:07:15;;;;;;;20.15;11.00;;;16.60;99.90;;;;;;5096906;28;20019;-89
2021/09/15 06:09:41;;;;;;;25.15;11.90;;;20.20;99.90;;;;;;5095969;28;20476;-89
2021/09/15 06:12:06;;;;;;;22.55;11.48;;;17.30;99.90;;;;;;5114334;28;20073;-90
2021/09/15 06:14:35;;;;;;;22.83;11.75;;;17.20;99.90;;;;;;5113792;28;20062;-90
2021/09/15 06:17:01;;;;;;;21.85;12.05;;;18.50;99.90;;;;;;5095787;28;20039;-89
2021/09/15 06:19:26;;;;;;;27.23;13.23;;;18.70;99.90;;;;;;5096284;28;20027;-88
2021/09/15 06:21:52;;;;;;;25.38;11.93;;;17.60;99.90;;;;;;5095729;28;20024;-88
2021/09/15 06:24:18;;;;;;;23.55;11.55;;;18.80;99.90;;;;;;5095912;28;20049;-88
2021/09/15 06:26:43;;;;;;;26.65;11.10;;;17.20;99.90;;;;;;5114250;28;20062;-87
2021/09/15 06:29:09;;;;;;;28.33;12.05;;;19.20;99.90;;;;;;5096012;28;20054;-88
2021/09/15 06:31:35;;;;;;;26.30;12.90;;;16.80;99.90;;;;;;5095557;28;20020;-88
2021/09/15 06:34:01;;;;;;;25.95;13.10;;;18.10;99.90;;;;;;5095691;28;20043;-88
2021/09/15 06:36:26;;;;;;;30.40;14.13;;;20.10;99.90;;;;;;5096261;28;20028;-88
2021/09/15 06:38:55;;;;;;;24.25;12.38;;;18.70;99.90;;;;;;5095903;28;20016;-88
2021/09/15 06:41:20;;;;;;;25.02;13.05;;;18.40;99.90;;;;;;5095413;28;20034;-88
2021/09/15 06:43:46;;;;;;;28.52;13.80;;;20.90;99.90;;;;;;5096074;28;20388;-87
2021/09/15 06:46:12;;;;;;;23.13;13.18;;;18.30;99.90;;;;;;5096056;28;20026;-89
2021/09/15 06:48:38;;;;;;;29.45;13.60;;;21.10;99.90;;;;;;5096077;28;20097;-88
2021/09/15 06:51:03;;;;;;;27.60;12.80;;;20.40;99.90;;;;;;5095648;28;20476;-87
2021/09/15 06:53:29;;;;;;;27.23;14.15;;;18.10;99.90;;;;;;5114162;28;20047;-89
2021/09/15 06:55:55;;;;;;;26.55;12.45;;;19.00;99.90;;;;;;5113902;28;20483;-90
2021/09/15 06:58:22;;;;;;;24.45;13.10;;;18.20;99.90;;;;;;5095615;28;20030;-89
2021/09/15 07:00:48;;;;;;;30.80;14.80;;;18.20;99.90;;;;;;5114000;28;20016;-88
2021/09/15 07:03:26;;;;;;;26.90;13.57;;;18.90;99.90;;;;;;5096043;28;20020;-88
2021/09/15 07:05:52;;;;;;;26.50;14.77;;;20.70;99.90;;;;;;5095775;28;20073;-88
2021/09/15 07:08:17;;;;;;;27.77;14.45;;;18.20;99.90;;;;;;5113862;28;20024;-88
2021/09/15 07:10:43;;;;;;;30.88;14.95;;;18.50;99.90;;;;;;5095223;28;20035;-88
2021/09/15 07:13:09;;;;;;;32.20;15.20;;;18.60;99.90;;;;;;5095643;28;20088;-88
2021/09/15 07:15:35;;;;;;;28.13;14.63;;;18.40;99.90;;;;;;5095599;28;20020;-89
2021/09/15 07:18:01;;;;;;;34.50;15.48;;;19.30;99.90;;;;;;5113581;28;20392;-89
2021/09/15 07:20:27;;;;;;;41.15;17.77;;;20.60;99.90;;;;;;5095424;28;20045;-89
2021/09/15 07:22:52;;;;;;;32.75;16.02;;;21.90;99.90;;;;;;5095304;28;20015;-89
2021/09/15 07:25:18;;;;;;;33.90;16.20;;;19.80;99.90;;;;;;5113349;28;20481;-90
2021/09/15 07:27:44;;;;;;;39.78;18.55;;;18.20;99.90;;;;;;5097952;28;20019;-89
2021/09/15 07:30:11;;;;;;;41.00;19.10;;;19.70;99.90;;;;;;5117192;28;20012;-89
2021/09/15 07:32:40;;;;;;;41.25;18.88;;;18.60;99.90;;;;;;5117173;28;20074;-89
2021/09/15 07:35:06;;;;;;;;;;;20.50;99.90;;;;;;5099640;28;20040;-89
2021/09/15 07:37:31;;;;;;;46.17;20.50;;;18.60;99.90;;;;;;5098829;28;20322;-87
2021/09/15 07:39:57;;;;;;;55.67;23.83;;;18.50;99.90;;;;;;5098463;28;20026;-87
2021/09/15 07:42:23;;;;;;;58.15;22.67;;;20.40;99.90;;;;;;5116666;28;20464;-87
2021/09/15 07:44:48;;;;;;;49.65;21.05;;;18.80;99.90;;;;;;5117299;28;20020;-87
2021/09/15 07:47:18;;;;;;;49.90;20.75;;;20.20;99.90;;;;;;5098781;28;20057;-87
2021/09/15 07:49:45;;;;;;;46.22;19.60;;;18.70;99.90;;;;;;5099209;28;20019;-87
2021/09/15 07:52:11;;;;;;;45.00;18.02;;;18.70;99.90;;;;;;5099387;28;20530;-87
2021/09/15 07:54:36;;;;;;;46.38;18.60;;;19.50;99.90;;;;;;5099135;28;20028;-87
2021/09/15 07:57:03;;;;;;;41.35;17.23;;;18.90;99.90;;;;;;5098420;28;20019;-87
2021/09/15 07:59:28;;;;;;;46.25;19.60;;;16.10;99.90;;;;;;5098453;28;20023;-87
2021/09/15 08:01:54;;;;;;;35.70;15.90;;;20.70;99.90;;;;;;5098523;28;20036;-87
2021/09/15 08:04:20;;;;;;;40.95;18.52;;;21.10;99.90;;;;;;5098160;28;20016;-87
2021/09/15 08:06:46;;;;;;;48.47;18.13;;;19.30;99.90;;;;;;5098908;28;20024;-87
2021/09/15 08:09:12;;;;;;;41.70;17.13;;;18.80;99.90;;;;;;5098368;28;20411;-87
2021/09/15 08:11:37;;;;;;;39.78;18.45;;;20.20;99.90;;;;;;5099366;28;20027;-87
2021/09/15 08:14:03;;;;;;;35.45;15.57;;;18.60;99.90;;;;;;5116443;28;20452;-87
2021/09/15 08:16:29;;;;;;;43.58;17.35;;;16.50;99.90;;;;;;5098768;28;20030;-87
2021/09/15 08:18:56;;;;;;;36.92;15.63;;;18.60;99.90;;;;;;5098528;28;20035;-87
2021/09/15 08:21:22;;;;;;;37.58;16.27;;;19.50;99.90;;;;;;5116714;28;20023;-87
2021/09/15 08:23:47;;;;;;;31.00;15.10;;;18.60;99.90;;;;;;5098334;28;20020;-88
2021/09/15 08:26:13;;;;;;;39.63;17.52;;;19.20;99.90;;;;;;5097931;28;20107;-87
2021/09/15 08:28:39;;;;;;;34.08;15.48;;;18.70;99.90;;;;;;5098370;28;20042;-87
2021/09/15 08:31:06;;;;;;;34.33;15.93;;;18.70;99.90;;;;;;5097894;28;20016;-88
2021/09/15 08:33:32;;;;;;;33.17;15.65;;;18.80;99.90;;;;;;5097945;28;20023;-88
2021/09/15 08:35:58;;;;;;;34.28;15.48;;;18.10;99.90;;;;;;5116411;28;20103;-89
2021/09/15 08:38:23;;;;;;;35.70;15.77;;;21.80;99.90;;;;;;5097247;28;20039;-89
2021/09/15 08:40:53;;;;;;;32.30;15.27;;;19.10;99.90;;;;;;5097641;28;20016;-89
2021/09/15 08:43:19;;;;;;;27.95;15.43;;;21.20;99.90;;;;;;5115553;28;20024;-89
2021/09/15 08:45:45;;;;;;;35.95;15.40;;;18.90;99.90;;;;;;5115651;28;20027;-89
2021/09/15 08:48:15;;;;;;;33.33;15.50;;;19.20;99.90;;;;;;5097404;28;20027;-89
2021/09/15 08:50:41;;;;;;;34.63;15.35;;;19.50;99.90;;;;;;5097457;28;20396;-89
2021/09/15 08:53:07;;;;;;;30.38;15.32;;;20.80;99.90;;;;;;5115445;28;20069;-89
2021/09/15 08:55:33;;;;;;;25.83;14.10;;;20.10;99.90;;;;;;5097221;28;20024;-89
2021/09/15 08:58:00;;;;;;;30.42;13.95;;;19.20;99.90;;;;;;5097557;28;20053;-88
2021/09/15 09:00:25;;;;;;;32.28;14.48;;;20.30;99.90;;;;;;5117217;28;20102;-88
2021/09/15 09:02:52;;;;;;;33.65;17.08;;;19.10;99.90;;;;;;5117662;28;20066;-88
2021/09/15 09:05:18;;;;;;;30.33;15.10;;;19.10;99.90;;;;;;5099044;28;20046;-88
2021/09/15 09:07:43;;;;;;;33.10;15.48;;;19.20;99.90;;;;;;5099272;28;20051;-88
2021/09/15 09:10:11;;;;;;;28.88;14.63;;;21.80;99.90;;;;;;5098756;28;20036;-87
2021/09/15 09:12:40;;;;;;;29.55;14.50;;;19.30;99.90;;;;;;5098801;28;20110;-87
2021/09/15 09:15:20;;;;;;;32.53;14.55;;;20.40;99.90;;;;;;5099317;28;20042;-87
2021/09/15 09:17:47;;;;;;;28.02;14.13;;;19.40;99.90;;;;;;5099886;28;20032;-88
2021/09/15 09:20:30;;;;;;;28.00;13.85;;;19.40;99.90;;;;;;5099208;28;20068;-88
2021/09/15 09:22:57;;;;;;;30.15;14.13;;;19.50;99.90;;;;;;5098831;28;20079;-88
2021/09/15 09:25:24;;;;;;;30.55;14.02;;;19.50;99.90;;;;;;5099164;28;20022;-88
2021/09/15 09:27:51;;;;;;;30.33;14.27;;;19.50;99.90;;;;;;5116738;28;20047;-88
2021/09/15 09:30:37;;;;;;;32.88;15.20;;;19.90;99.90;;;;;;5098147;28;20015;-88
2021/09/15 09:33:04;;;;;;;30.88;14.55;;;19.30;99.90;;;;;;5098681;28;20030;-88
2021/09/15 09:35:38;;;;;;;26.30;13.48;;;19.20;99.90;;;;;;5117142;28;20100;-88
2021/09/15 09:38:33;;;;;;;19.13;9.40;;;18.90;99.90;;;;;;5117569;28;20381;-89
2021/09/15 09:41:11;;;;;;;17.77;9.38;;;19.10;99.90;;;;;;5117387;28;20038;-89
2021/09/15 09:43:40;;;;;;;15.40;7.63;;;18.60;99.90;;;;;;5098619;28;20526;-88
2021/09/15 09:46:07;;;;;;;14.05;8.00;;;22.00;99.90;;;;;;5116691;28;20354;-88
2021/09/15 09:48:35;;;;;;;30.45;7.65;;;20.50;99.90;;;;;;5098407;28;20024;-88
2021/09/15 09:51:04;;;;;;;16.25;7.80;;;20.60;99.90;;;;;;5116127;28;20044;-88
2021/09/15 09:53:30;;;;;;;12.45;6.97;;;18.60;99.90;;;;;;5097699;28;20027;-88
2021/09/15 09:55:57;;;;;;;10.15;6.15;;;18.80;99.90;;;;;;5096903;28;20084;-88
2021/09/15 09:58:25;;;;;;;12.05;6.35;;;21.40;99.90;;;;;;5096811;28;20456;-88
2021/09/15 10:00:56;;;;;;;17.42;6.45;;;19.40;99.90;;;;;;5114907;28;20016;-88
2021/09/15 10:03:21;;;;;;;14.23;6.95;;;19.70;99.90;;;;;;5099679;28;20020;-88
2021/09/15 10:05:49;;;;;;;10.93;6.00;;;19.40;99.90;;;;;;5117898;28;20095;-88
2021/09/15 10:08:19;;;;;;;12.03;5.87;;;20.10;99.90;;;;;;5114837;28;20024;-88
2021/09/15 10:10:48;;;;;;;11.57;4.90;;;20.10;99.90;;;;;;5115167;28;20032;-88
2021/09/15 10:13:15;;;;;;;9.60;4.90;;;20.10;99.90;;;;;;5098632;28;20020;-87
2021/09/15 10:15:46;;;;;;;8.20;3.97;;;23.20;99.90;;;;;;5097302;28;20069;-87
2021/09/15 10:18:14;;;;;;;7.28;4.18;;;20.00;99.90;;;;;;5097740;28;20023;-87
2021/09/15 10:20:45;;;;;;;7.05;3.75;;;21.50;99.90;;;;;;5097016;28;20051;-88
2021/09/15 10:23:35;;;;;;;8.73;3.88;;;21.90;99.90;;;;;;5096480;28;20385;-88
2021/09/15 10:26:30;;;;;;;6.80;3.22;;;21.70;99.90;;;;;;5082046;28;20473;-88
2021/09/15 10:29:28;;;;;;;7.00;3.53;;;20.40;99.90;;;;;;5103555;28;20028;-88
2021/09/15 10:31:56;;;;;;;;;;;20.40;99.90;;;;;;5096475;28;20506;-88
2021/09/15 10:34:40;;;;;;;4.40;2.63;;;23.80;99.90;;;;;;5096039;28;19990;-88
2021/09/15 10:37:11;;;;;;;4.30;3.08;;;22.50;99.90;;;;;;5114052;28;20023;-88
2021/09/15 10:39:52;;;;;;;5.90;2.50;;;22.00;99.90;;;;;;5095724;28;20032;-88
2021/09/15 10:42:39;;;;;;;5.38;3.03;;;21.90;99.90;;;;;;5097075;28;20032;-88
2021/09/15 10:45:11;;;;;;;7.07;3.17;;;21.80;99.90;;;;;;5096179;28;20172;-88
2021/09/15 10:47:46;;;;;;;7.10;3.13;;;20.80;99.90;;;;;;5114141;28;20095;-88
2021/09/15 10:50:27;;;;;;;4.82;2.20;;;20.60;99.90;;;;;;5114445;28;20089;-88
2021/09/15 10:53:12;;;;;;;4.28;2.00;;;20.60;99.90;;;;;;5095723;28;20027;-88
2021/09/15 10:55:46;;;;;;;5.75;2.60;;;22.80;99.90;;;;;;5096054;28;20026;-89
2021/09/15 10:58:19;;;;;;;4.80;3.00;;;20.40;99.90;;;;;;5095733;28;20028;-88
2021/09/15 11:00:56;;;;;;;2.92;2.13;;;20.30;99.90;;;;;;5097816;28;20024;-89
2021/09/15 11:03:39;;;;;;;2.28;1.60;;;21.90;99.90;;;;;;5099854;28;20392;-87
2021/09/15 11:06:07;;;;;;;4.22;1.27;;;20.30;99.90;;;;;;5099804;28;20376;-88
2021/09/15 11:08:45;;;;;;;3.75;1.40;;;20.20;99.90;;;;;;5099448;28;20020;-88
2021/09/15 11:11:20;;;;;;;1.63;0.70;;;20.20;99.90;;;;;;5099138;28;20028;-88
2021/09/15 11:14:05;;;;;;;4.10;0.93;;;23.60;99.90;;;;;;5099052;28;20040;-88
2021/09/15 11:16:39;;;;;;;4.97;0.55;;;21.60;99.90;;;;;;5099845;28;20114;-88
2021/09/15 11:19:08;;;;;;;3.50;0.40;;;20.40;99.90;;;;;;5117212;28;20024;-88
2021/09/15 11:21:54;;;;;;;3.83;1.17;;;20.10;99.90;;;;;;5099127;28;20030;-89
2021/09/15 11:24:23;;;;;;;4.97;1.35;;;20.20;99.90;;;;;;5099165;28;20024;-88
2021/09/15 11:26:53;;;;;;;;;;;20.40;99.90;;;;;;5099363;28;20357;-88
2021/09/15 11:29:45;;;;;;;2.20;0.43;;;21.40;99.90;;;;;;5099203;28;19907;-89
2021/09/15 11:32:14;;;;;;;3.17;0.20;;;20.30;99.90;;;;;;5098851;28;20499;-88
2021/09/15 11:34:50;;;;;;;5.15;0.30;;;22.30;99.90;;;;;;5099126;28;20023;-88
2021/09/15 11:37:28;;;;;;;1.50;0.35;;;20.40;99.90;;;;;;5099827;28;20118;-88
2021/09/15 11:39:56;;;;;;;1.60;0.27;;;20.50;99.90;;;;;;5099861;28;20031;-88
2021/09/15 11:42:24;;;;;;;1.90;0.10;;;21.40;99.90;;;;;;5100545;28;20298;-88
2021/09/15 11:44:53;;;;;;;6.28;0.20;;;20.70;99.90;;;;;;5101468;28;20031;-88
2021/09/15 11:47:26;;;;;;;;;;;19.50;99.90;;;;;;5101258;28;20016;-88
2021/09/15 11:49:51;;;;;;;3.83;0.30;;;20.90;99.90;;;;;;5100831;28;20303;-88
2021/09/15 11:52:17;;;;;;;1.90;0.00;;;21.10;99.90;;;;;;5100374;28;20024;-88
2021/09/15 11:54:48;;;;;;;0.70;0.30;;;22.30;99.90;;;;;;5099352;28;20030;-88
2021/09/15 11:57:15;;;;;;;3.30;0.28;;;21.90;99.90;;;;;;5117320;28;20020;-88
2021/09/15 11:59:41;;;;;;;1.17;0.13;;;21.50;99.90;;;;;;5117881;28;20106;-88
2021/09/15 12:02:10;;;;;;;4.10;0.45;;;24.40;99.90;;;;;;5100333;28;20119;-87
2021/09/15 12:04:39;;;;;;;2.63;0.08;;;21.20;99.90;;;;;;5117932;28;20016;-88
2021/09/15 12:07:05;;;;;;;;;;;21.20;99.90;;;;;;5100416;28;20484;-88
2021/09/15 12:09:35;;;;;;;1.95;0.00;;;22.00;99.90;;;;;;5100844;28;19918;-88
2021/09/15 12:12:09;;;;;;;2.40;0.00;;;21.10;99.90;;;;;;5099965;28;20023;-88
2021/09/15 12:14:35;;;;;;;1.40;0.05;;;22.50;99.90;;;;;;5100927;28;20031;-88
2021/09/15 12:17:04;;;;;;;1.08;0.00;;;21.80;99.90;;;;;;5100471;28;20384;-88
2021/09/15 12:19:30;;;;;;;1.98;0.00;;;20.90;99.90;;;;;;5099457;28;20020;-88
2021/09/15 12:21:55;;;;;;;2.42;0.00;;;20.70;99.90;;;;;;5118367;28;20027;-88
2021/09/15 12:24:22;;;;;;;4.00;0.55;;;20.40;99.90;;;;;;5099387;28;20387;-88
2021/09/15 12:26:48;;;;;;;0.93;0.00;;;20.70;99.90;;;;;;5099603;28;20532;-88
2021/09/15 12:29:20;;;;;;;1.30;0.05;;;20.80;99.90;;;;;;5099713;28;20019;-88
2021/09/15 12:31:59;;;;;;;1.30;0.00;;;21.60;99.90;;;;;;5099335;28;20038;-88
2021/09/15 12:34:36;;;;;;;4.90;0.10;;;20.60;99.90;;;;;;5098922;28;20525;-89
2021/09/15 12:37:14;;;;;;;0.15;0.00;;;20.70;99.90;;;;;;5117072;28;20024;-88
2021/09/15 12:39:56;;;;;;;2.33;0.00;;;20.60;99.90;;;;;;5117194;28;20019;-88
2021/09/15 12:42:24;;;;;;;0.30;0.00;;;20.80;99.90;;;;;;5100651;28;20058;-88